Time;durP1;ratioP1;P1;durP2;ratioP2;P2;SDS_P1;SDS_P2;PMS_P1;PMS_P2;Temp;Humidity;BMP_temperature;BMP_pressure;BME280_temperature;BME280_humidity;BME280_pressure;Samples;Min_cycle;Max_cycle;Signal;HPM_P1;HPM_P2
2022/10/10 00:00:28;;;;;;;7.90;4.40;;;7.90;99.90;;;;;;5219792;28;20467;-72
2022/10/10 00:03:04;;;;;;;7.63;4.30;;;7.80;99.90;;;;;;5219352;28;20048;-72
2022/10/10 00:05:37;;;;;;;6.85;3.97;;;7.70;99.90;;;;;;5174160;28;20065;-72
2022/10/10 00:08:09;;;;;;;4.63;3.65;;;7.70;99.90;;;;;;5200853;28;20029;-72
2022/10/10 00:10:40;;;;;;;9.80;3.85;;;7.70;99.90;;;;;;5200330;28;20214;-72
2022/10/10 00:13:11;;;;;;;6.30;3.25;;;7.70;99.90;;;;;;5215370;28;20017;-72
2022/10/10 00:15:42;;;;;;;5.38;3.50;;;7.70;99.90;;;;;;5199610;28;20035;-72
2022/10/10 00:18:16;;;;;;;6.15;4.35;;;7.70;99.90;;;;;;5220431;28;20459;-72
2022/10/10 00:20:50;;;;;;;5.20;3.83;;;7.80;99.90;;;;;;5204019;28;20033;-71
2022/10/10 00:23:21;;;;;;;5.77;3.87;;;7.80;99.90;;;;;;5220943;28;20037;-73
2022/10/10 00:25:52;;;;;;;6.82;4.40;;;7.80;99.90;;;;;;5220421;28;20643;-71
2022/10/10 00:28:24;;;;;;;5.35;4.20;;;7.80;99.90;;;;;;5205471;28;20047;-73
2022/10/10 00:30:59;;;;;;;7.22;3.42;;;7.70;99.90;;;;;;5220726;28;20043;-71
2022/10/10 00:33:30;;;;;;;6.05;3.83;;;7.70;99.90;;;;;;5225091;28;20600;-72
2022/10/10 00:36:07;;;;;;;6.65;3.80;;;7.70;99.90;;;;;;5223989;28;20025;-72
2022/10/10 00:38:41;;;;;;;7.20;3.67;;;7.70;99.90;;;;;;5203592;28;20326;-72
2022/10/10 00:41:13;;;;;;;4.95;2.97;;;7.70;99.90;;;;;;5220621;28;20092;-72
2022/10/10 00:44:04;;;;;;;6.72;3.53;;;7.80;99.90;;;;;;5221291;28;20624;-71
2022/10/10 00:46:36;;;;;;;6.85;3.47;;;7.80;99.90;;;;;;5223883;28;20027;-72
2022/10/10 00:49:16;;;;;;;4.47;3.30;;;7.90;99.90;;;;;;5206237;28;20013;-72
2022/10/10 00:51:52;;;;;;;5.25;3.50;;;7.90;99.90;;;;;;5203032;28;20053;-72
2022/10/10 00:54:31;;;;;;;7.05;3.28;;;7.90;99.90;;;;;;5186531;28;20027;-72
2022/10/10 00:57:12;;;;;;;5.75;3.22;;;7.90;99.90;;;;;;5170741;28;20055;-71
2022/10/10 00:59:45;;;;;;;3.63;3.20;;;7.90;99.90;;;;;;5187457;28;20022;-73
2022/10/10 01:02:16;;;;;;;4.63;3.03;;;7.90;99.90;;;;;;5197081;28;20044;-72
2022/10/10 01:04:47;;;;;;;4.63;3.08;;;8.00;99.90;;;;;;5202887;28;20045;-73
2022/10/10 01:07:22;;;;;;;6.03;3.38;;;8.00;99.90;;;;;;5206710;28;20554;-73
2022/10/10 01:09:58;;;;;;;3.25;2.95;;;8.10;99.90;;;;;;5223995;28;20017;-73
2022/10/10 01:12:35;;;;;;;5.40;3.78;;;8.10;99.90;;;;;;5210554;28;20068;-73
2022/10/10 01:15:32;;;;;;;7.82;3.20;;;8.10;99.90;;;;;;5215377;28;20031;-73
2022/10/10 01:18:22;;;;;;;6.90;3.33;;;8.10;99.90;;;;;;5217214;28;20047;-73
2022/10/10 01:21:13;;;;;;;8.13;3.58;;;8.10;99.90;;;;;;5204241;28;20025;-73
2022/10/10 01:24:24;;;;;;;4.75;3.47;;;8.00;99.90;;;;;;5223617;28;20023;-73
2022/10/10 01:27:17;;;;;;;7.25;3.47;;;8.10;99.90;;;;;;5204280;28;20044;-73
2022/10/10 01:29:55;;;;;;;4.40;3.25;;;8.10;99.90;;;;;;5166847;28;20048;-73
2022/10/10 01:32:47;;;;;;;5.97;3.47;;;8.00;99.90;;;;;;5200933;28;20029;-73
2022/10/10 01:35:20;;;;;;;5.72;3.83;;;8.00;99.90;;;;;;5208500;28;20039;-73
2022/10/10 01:38:40;;;;;;;6.97;4.07;;;7.90;99.90;;;;;;5229002;28;20066;-72
2022/10/10 01:41:23;;;;;;;6.18;3.53;;;7.90;99.90;;;;;;5177812;28;20795;-73
2022/10/10 01:43:57;;;;;;;5.57;3.78;;;7.90;99.90;;;;;;5182160;28;20570;-73
2022/10/10 01:46:28;;;;;;;4.97;3.35;;;7.90;99.90;;;;;;5179458;28;20581;-73
2022/10/10 01:49:03;;;;;;;5.47;2.92;;;7.90;99.90;;;;;;5176562;28;20028;-73
2022/10/10 01:51:40;;;;;;;4.95;2.90;;;7.90;99.90;;;;;;5174741;28;20038;-74
2022/10/10 01:54:23;;;;;;;5.68;3.05;;;7.90;99.90;;;;;;5179818;28;20026;-74
2022/10/10 01:57:19;;;;;;;4.80;2.90;;;7.90;99.90;;;;;;5180023;28;20028;-72
2022/10/10 02:00:08;;;;;;;5.28;3.75;;;7.90;99.90;;;;;;5178261;28;20034;-73
2022/10/10 02:02:59;;;;;;;3.58;3.00;;;7.90;99.90;;;;;;5176250;28;20037;-72
2022/10/10 02:05:48;;;;;;;6.70;3.58;;;7.90;99.90;;;;;;5166067;28;20651;-72
2022/10/10 02:08:44;;;;;;;6.72;3.25;;;7.90;99.90;;;;;;5162933;28;20048;-72
2022/10/10 02:11:15;;;;;;;6.57;3.42;;;7.90;99.90;;;;;;5173650;28;20371;-72
2022/10/10 02:13:51;;;;;;;5.22;3.42;;;7.80;99.90;;;;;;5164897;28;20026;-72
2022/10/10 02:16:50;;;;;;;5.15;3.42;;;7.80;99.90;;;;;;5163247;28;20025;-72
2022/10/10 02:19:25;;;;;;;11.90;3.75;;;7.60;99.90;;;;;;5219568;28;20371;-72
2022/10/10 02:22:00;;;;;;;4.63;3.40;;;7.60;99.90;;;;;;5183724;28;20538;-72
2022/10/10 02:24:36;;;;;;;5.22;3.60;;;7.50;99.90;;;;;;5201459;28;20490;-74
2022/10/10 02:27:17;;;;;;;4.95;3.17;;;7.50;99.90;;;;;;5205628;28;20025;-74
2022/10/10 02:29:52;;;;;;;6.53;4.35;;;7.50;99.90;;;;;;5204828;28;20025;-74
2022/10/10 02:32:36;;;;;;;7.15;3.45;;;7.50;99.90;;;;;;5221266;28;20041;-74
2022/10/10 02:35:12;;;;;;;4.80;3.40;;;7.50;99.90;;;;;;5214438;28;20582;-74
2022/10/10 02:37:45;;;;;;;4.85;3.55;;;7.50;99.90;;;;;;5215878;28;20058;-71
2022/10/10 02:40:20;;;;;;;6.47;3.50;;;7.40;99.90;;;;;;5201515;28;20032;-72
2022/10/10 02:42:52;;;;;;;3.50;3.03;;;7.40;99.90;;;;;;5181979;28;20029;-73
2022/10/10 02:45:25;;;;;;;4.30;3.30;;;7.40;99.90;;;;;;5203718;28;20039;-72
2022/10/10 02:47:59;;;;;;;5.45;3.35;;;7.30;99.90;;;;;;5221741;28;20043;-72
2022/10/10 02:50:33;;;;;;;;;;;7.40;99.90;;;;;;5223510;28;20356;-72
2022/10/10 02:53:04;;;;;;;4.40;2.95;;;7.40;99.90;;;;;;5243062;28;19920;-72
2022/10/10 02:55:36;;;;;;;4.07;2.97;;;7.40;99.90;;;;;;5200853;28;20021;-74
2022/10/10 02:58:13;;;;;;;3.83;3.10;;;7.50;99.90;;;;;;5177921;28;20017;-74
2022/10/10 03:00:44;;;;;;;5.93;3.00;;;7.50;99.90;;;;;;5224668;28;20028;-74
2022/10/10 03:03:21;;;;;;;4.15;3.10;;;7.50;99.90;;;;;;5205051;28;20040;-74
2022/10/10 03:05:52;;;;;;;7.35;2.90;;;7.50;99.90;;;;;;5211319;28;20460;-73
2022/10/10 03:08:23;;;;;;;5.57;3.38;;;7.40;99.90;;;;;;5216327;28;20029;-74
2022/10/10 03:10:58;;;;;;;4.18;2.70;;;7.40;99.90;;;;;;5220346;28;20092;-73
2022/10/10 03:13:29;;;;;;;3.95;3.00;;;7.40;99.90;;;;;;5236590;28;20506;-73
2022/10/10 03:16:02;;;;;;;3.72;2.80;;;7.40;99.90;;;;;;5203381;28;20065;-73
2022/10/10 03:18:33;;;;;;;4.18;3.20;;;7.40;99.90;;;;;;5188366;28;20031;-73
2022/10/10 03:21:08;;;;;;;6.30;3.25;;;7.30;99.90;;;;;;5203424;28;20025;-73
2022/10/10 03:23:39;;;;;;;4.00;3.08;;;7.30;99.90;;;;;;5204113;28;20025;-73
2022/10/10 03:26:10;;;;;;;4.55;3.05;;;7.30;99.90;;;;;;5221895;28;20039;-74
2022/10/10 03:28:41;;;;;;;4.50;3.00;;;7.30;99.90;;;;;;5220405;28;20039;-73
2022/10/10 03:31:13;;;;;;;4.65;3.03;;;7.20;99.90;;;;;;5221350;28;20433;-73
2022/10/10 03:33:44;;;;;;;5.00;2.97;;;7.30;99.90;;;;;;5231255;28;20050;-74
2022/10/10 03:36:18;;;;;;;8.80;3.22;;;7.20;99.90;;;;;;5228426;28;20024;-73
2022/10/10 03:38:54;;;;;;;3.60;2.90;;;7.20;99.90;;;;;;5198093;28;20426;-73
2022/10/10 03:41:26;;;;;;;3.90;3.45;;;7.20;99.90;;;;;;5204240;28;20024;-72
2022/10/10 03:44:00;;;;;;;7.75;4.20;;;7.10;99.90;;;;;;5204125;28;20025;-73
2022/10/10 03:46:34;;;;;;;9.10;3.45;;;7.20;99.90;;;;;;5222193;28;20128;-74
2022/10/10 03:49:05;;;;;;;5.68;3.75;;;7.20;99.90;;;;;;5211323;28;20029;-74
2022/10/10 03:51:38;;;;;;;3.63;2.92;;;7.20;99.90;;;;;;5205132;28;20029;-73
2022/10/10 03:54:09;;;;;;;3.42;2.67;;;7.30;99.90;;;;;;5222277;28;20025;-73
2022/10/10 03:56:42;;;;;;;6.22;2.75;;;7.40;99.90;;;;;;5221328;28;20039;-73
2022/10/10 03:59:13;;;;;;;5.05;2.85;;;7.50;99.90;;;;;;5221389;28;20025;-73
2022/10/10 04:01:47;;;;;;;4.60;2.75;;;7.50;99.90;;;;;;5223411;28;20041;-73
2022/10/10 04:04:18;;;;;;;4.55;2.80;;;7.60;99.90;;;;;;5222715;28;20039;-73
2022/10/10 04:06:49;;;;;;;7.05;3.08;;;7.60;99.90;;;;;;5209390;28;20029;-73
2022/10/10 04:09:21;;;;;;;5.25;3.08;;;7.60;99.90;;;;;;5193582;28;20461;-72
2022/10/10 04:11:53;;;;;;;4.00;2.70;;;7.60;99.90;;;;;;5220364;28;20037;-73
2022/10/10 04:14:24;;;;;;;4.85;2.95;;;7.60;99.90;;;;;;5220570;28;20029;-73
2022/10/10 04:16:55;;;;;;;3.55;2.92;;;7.60;99.90;;;;;;5204023;28;20048;-73
2022/10/10 04:19:26;;;;;;;4.38;2.67;;;7.60;99.90;;;;;;5241503;28;20035;-73
2022/10/10 04:21:59;;;;;;;3.75;2.63;;;7.70;99.90;;;;;;5222933;28;20097;-73
2022/10/10 04:24:30;;;;;;;6.32;2.85;;;7.70;99.90;;;;;;5214684;28;20037;-73
2022/10/10 04:27:01;;;;;;;3.47;2.20;;;7.70;99.90;;;;;;5211976;28;20031;-73
2022/10/10 04:29:35;;;;;;;4.32;2.80;;;7.70;99.90;;;;;;5225304;28;20039;-73
2022/10/10 04:32:23;;;;;;;6.28;3.60;;;7.70;99.90;;;;;;5208119;28;20043;-73
2022/10/10 04:34:57;;;;;;;5.25;3.00;;;7.80;99.90;;;;;;5219651;28;20095;-73
2022/10/10 04:37:29;;;;;;;5.85;3.55;;;7.90;99.90;;;;;;5197842;28;20375;-73
2022/10/10 04:40:00;;;;;;;5.72;3.10;;;7.90;99.90;;;;;;5218400;28;20029;-73
2022/10/10 04:42:32;;;;;;;5.40;3.10;;;8.00;99.90;;;;;;5240903;28;20044;-74
2022/10/10 04:45:03;;;;;;;6.55;3.10;;;8.00;99.90;;;;;;5229347;28;20023;-73
2022/10/10 04:47:35;;;;;;;5.88;3.65;;;8.00;99.90;;;;;;5207734;28;20064;-74
2022/10/10 04:50:06;;;;;;;5.68;3.30;;;8.00;99.90;;;;;;5207195;28;20033;-74
2022/10/10 04:52:37;;;;;;;3.10;2.80;;;8.10;99.90;;;;;;5219426;28;20039;-73
2022/10/10 04:55:08;;;;;;;6.38;3.58;;;8.10;99.90;;;;;;5214456;28;20024;-72
2022/10/10 04:57:42;;;;;;;4.90;3.47;;;8.10;99.90;;;;;;5200591;28;20570;-71
2022/10/10 05:00:16;;;;;;;6.68;4.20;;;8.10;99.90;;;;;;5211887;28;20093;-71
2022/10/10 05:02:50;;;;;;;4.30;3.50;;;8.00;99.90;;;;;;5228653;28;20036;-72
2022/10/10 05:05:22;;;;;;;5.55;3.38;;;8.00;99.90;;;;;;5207501;28;20087;-72
2022/10/10 05:07:53;;;;;;;5.80;3.20;;;8.00;99.90;;;;;;5209855;28;20021;-72
2022/10/10 05:10:30;;;;;;;5.50;3.20;;;8.10;99.90;;;;;;5203609;28;20025;-72
2022/10/10 05:13:02;;;;;;;4.13;3.00;;;8.10;99.90;;;;;;5219123;28;20072;-73
2022/10/10 05:15:39;;;;;;;5.13;2.90;;;8.20;99.90;;;;;;5223871;28;20055;-72
2022/10/10 05:18:13;;;;;;;6.03;3.47;;;8.10;99.90;;;;;;5212515;28;20031;-71
2022/10/10 05:20:46;;;;;;;5.85;3.25;;;8.20;99.90;;;;;;5226030;28;20368;-71
2022/10/10 05:23:17;;;;;;;7.40;2.95;;;8.10;99.90;;;;;;5225646;28;20039;-72
2022/10/10 05:25:51;;;;;;;8.30;3.30;;;8.10;99.90;;;;;;5208228;28;20032;-71
2022/10/10 05:28:24;;;;;;;4.05;2.85;;;8.20;99.90;;;;;;5219699;28;20372;-72
2022/10/10 05:30:55;;;;;;;5.45;3.42;;;8.20;99.90;;;;;;5217129;28;20029;-72
2022/10/10 05:33:32;;;;;;;7.50;3.10;;;8.20;99.90;;;;;;5183933;28;20384;-71
2022/10/10 05:36:12;;;;;;;4.97;3.72;;;8.20;99.90;;;;;;5204688;28;20033;-72
2022/10/10 05:38:43;;;;;;;5.63;2.92;;;8.30;99.90;;;;;;5205239;28;20503;-72
2022/10/10 05:41:15;;;;;;;6.65;3.42;;;8.40;99.90;;;;;;5188272;28;20033;-72
2022/10/10 05:43:46;;;;;;;5.75;3.28;;;8.40;99.90;;;;;;5224531;28;20025;-72
2022/10/10 05:46:19;;;;;;;10.70;3.28;;;8.50;99.90;;;;;;5224332;28;20024;-72
2022/10/10 05:48:52;;;;;;;5.63;3.22;;;8.50;99.90;;;;;;5221248;28;20190;-72
2022/10/10 05:51:23;;;;;;;8.10;3.35;;;8.60;99.90;;;;;;5244294;28;20059;-72
2022/10/10 05:54:00;;;;;;;7.38;4.53;;;8.70;99.90;;;;;;5239626;28;20483;-71
2022/10/10 05:56:33;;;;;;;9.85;4.78;;;8.80;99.90;;;;;;5243076;28;20040;-71
2022/10/10 05:59:05;;;;;;;6.75;4.28;;;8.90;99.90;;;;;;5223675;28;20020;-72
2022/10/10 06:01:36;;;;;;;6.03;3.40;;;9.10;99.90;;;;;;5221067;28;20507;-72
2022/10/10 06:04:10;;;;;;;7.35;3.83;;;9.20;99.90;;;;;;5205538;28;20054;-73
2022/10/10 06:06:44;;;;;;;5.47;4.15;;;9.30;99.90;;;;;;5179700;28;20048;-72
2022/10/10 06:09:15;;;;;;;8.27;3.13;;;9.50;99.90;;;;;;5223039;28;20029;-72
2022/10/10 06:11:46;;;;;;;5.13;3.67;;;9.60;99.90;;;;;;5207780;28;20041;-72
2022/10/10 06:14:20;;;;;;;4.50;3.33;;;9.70;99.90;;;;;;5231896;28;20020;-72
2022/10/10 06:16:52;;;;;;;5.97;3.65;;;9.90;99.90;;;;;;5223349;28;20025;-72
2022/10/10 06:19:25;;;;;;;3.00;2.70;;;10.00;99.90;;;;;;5230735;28;20043;-73
2022/10/10 06:21:56;;;;;;;3.35;3.00;;;10.10;99.90;;;;;;5231285;28;20024;-72
2022/10/10 06:24:28;;;;;;;3.63;3.15;;;10.30;99.90;;;;;;5238624;28;20342;-72
2022/10/10 06:27:02;;;;;;;5.28;3.50;;;10.40;99.90;;;;;;5223132;28;20032;-72
2022/10/10 06:29:33;;;;;;;5.32;3.00;;;10.60;99.90;;;;;;5202225;28;20035;-72
2022/10/10 06:32:04;;;;;;;5.25;3.05;;;10.80;99.90;;;;;;5230070;28;20033;-72
2022/10/10 06:34:43;;;;;;;4.70;3.10;;;11.00;99.90;;;;;;5238330;28;20032;-72
2022/10/10 06:37:14;;;;;;;6.25;3.47;;;11.10;99.90;;;;;;5233437;28;20024;-72
2022/10/10 06:39:45;;;;;;;6.93;3.38;;;11.40;99.90;;;;;;5222734;28;20047;-72
2022/10/10 06:42:16;;;;;;;11.98;3.67;;;11.60;99.90;;;;;;5225387;28;20017;-72
2022/10/10 06:44:48;;;;;;;4.43;2.90;;;11.70;99.90;;;;;;5208108;28;20039;-72
2022/10/10 06:47:19;;;;;;;4.68;3.15;;;11.90;99.90;;;;;;5166193;28;20047;-72
2022/10/10 06:49:53;;;;;;;8.75;3.88;;;12.10;99.90;;;;;;5221922;28;20028;-72
2022/10/10 06:52:24;;;;;;;4.30;2.70;;;12.20;99.90;;;;;;5203666;28;20582;-72
2022/10/10 06:54:58;;;;;;;4.15;3.25;;;12.30;99.90;;;;;;5193058;28;20025;-72
2022/10/10 06:57:29;;;;;;;3.47;2.90;;;12.30;99.90;;;;;;5197348;28;20027;-72
2022/10/10 07:00:00;;;;;;;4.07;2.58;;;12.40;99.90;;;;;;5174845;28;20406;-72
2022/10/10 07:02:31;;;;;;;5.18;3.10;;;12.60;99.90;;;;;;5205524;28;20040;-73
2022/10/10 07:05:05;;;;;;;4.28;2.88;;;12.70;99.90;;;;;;5208872;28;20092;-72
2022/10/10 07:07:37;;;;;;;5.63;3.00;;;12.90;99.90;;;;;;5203726;28;20028;-73
2022/10/10 07:10:14;;;;;;;6.07;3.35;;;13.00;99.90;;;;;;5221186;28;20017;-72
2022/10/10 07:12:48;;;;;;;4.80;3.05;;;13.10;99.90;;;;;;5203232;28;20044;-72
2022/10/10 07:15:19;;;;;;;4.50;3.17;;;13.40;99.90;;;;;;5215565;28;20039;-71
2022/10/10 07:17:57;;;;;;;4.22;2.83;;;13.60;99.90;;;;;;5220911;28;20366;-71
2022/10/10 07:20:28;;;;;;;4.75;2.70;;;13.80;99.90;;;;;;5182835;28;20042;-72
2022/10/10 07:23:01;;;;;;;2.65;2.20;;;13.90;99.90;;;;;;5200424;28;20053;-71
2022/10/10 07:25:39;;;;;;;3.92;2.58;;;14.00;99.90;;;;;;5197039;28;20021;-72
2022/10/10 07:28:10;;;;;;;3.47;2.80;;;14.20;99.90;;;;;;5190417;28;20437;-71
2022/10/10 07:30:45;;;;;;;3.97;2.92;;;14.20;99.90;;;;;;5219135;28;20020;-72
2022/10/10 07:33:16;;;;;;;6.32;3.15;;;14.20;99.90;;;;;;5225168;28;20312;-71
2022/10/10 07:35:53;;;;;;;3.55;2.90;;;14.50;99.90;;;;;;5221125;28;20032;-72
2022/10/10 07:38:25;;;;;;;4.55;2.90;;;14.70;99.90;;;;;;5183336;28;20549;-72
2022/10/10 07:40:56;;;;;;;5.32;2.95;;;15.00;99.90;;;;;;5200351;28;20030;-73
2022/10/10 07:43:29;;;;;;;6.32;2.72;;;15.00;99.90;;;;;;5202439;28;20385;-71
2022/10/10 07:46:01;;;;;;;4.43;2.70;;;15.10;99.90;;;;;;5199723;28;20242;-73
2022/10/10 07:48:32;;;;;;;7.68;2.85;;;14.90;99.90;;;;;;5211879;28;20042;-72
2022/10/10 07:51:05;;;;;;;3.13;2.83;;;15.20;99.90;;;;;;5213151;28;20029;-72
2022/10/10 07:53:40;;;;;;;3.00;2.70;;;15.10;99.90;;;;;;5213754;28;20053;-72
2022/10/10 07:56:11;;;;;;;11.55;3.13;;;15.30;99.90;;;;;;5209326;28;20017;-71
2022/10/10 07:58:42;;;;;;;4.43;2.90;;;15.60;99.90;;;;;;5208717;28;20083;-72
2022/10/10 08:01:16;;;;;;;5.55;3.00;;;15.70;99.90;;;;;;5183043;28;20028;-72
2022/10/10 08:03:47;;;;;;;3.17;2.50;;;15.80;99.90;;;;;;5215734;28;20039;-72
2022/10/10 08:06:19;;;;;;;4.30;2.95;;;15.80;99.90;;;;;;5209202;28;20310;-72
2022/10/10 08:08:50;;;;;;;5.30;2.33;;;15.90;99.90;;;;;;5203687;28;20040;-72
2022/10/10 08:11:24;;;;;;;6.03;2.85;;;15.90;99.90;;;;;;5192919;28;20029;-72
2022/10/10 08:13:55;;;;;;;3.75;2.88;;;16.00;99.90;;;;;;5220680;28;20036;-72
2022/10/10 08:16:26;;;;;;;4.88;3.10;;;16.10;99.90;;;;;;5220331;28;20237;-72
2022/10/10 08:18:57;;;;;;;6.55;3.42;;;16.20;99.90;;;;;;5219216;28;20267;-72
2022/10/10 08:21:29;;;;;;;3.53;3.08;;;16.20;99.90;;;;;;5231540;28;20028;-72
2022/10/10 08:24:00;;;;;;;7.43;2.90;;;16.30;99.90;;;;;;5213839;28;20041;-72
2022/10/10 08:26:31;;;;;;;4.60;2.72;;;16.40;99.90;;;;;;5220429;28;20391;-72
2022/10/10 08:29:08;;;;;;;8.05;3.03;;;16.60;99.90;;;;;;5203713;28;20036;-72
2022/10/10 08:31:39;;;;;;;3.72;2.92;;;16.70;99.90;;;;;;5199380;28;20025;-72
2022/10/10 08:34:10;;;;;;;8.65;2.97;;;16.70;99.90;;;;;;5227920;28;20043;-72
2022/10/10 08:36:41;;;;;;;8.30;2.78;;;16.70;99.90;;;;;;5229320;28;20040;-72
2022/10/10 08:39:15;;;;;;;4.43;2.97;;;17.00;99.90;;;;;;5220484;28;20032;-72
2022/10/10 08:41:54;;;;;;;3.40;2.60;;;17.10;99.90;;;;;;5203080;28;20179;-72
2022/10/10 08:44:44;;;;;;;3.63;2.53;;;17.40;99.90;;;;;;5220539;28;20029;-72
2022/10/10 08:47:48;;;;;;;3.80;2.47;;;17.50;99.90;;;;;;5216320;28;20326;-72
2022/10/10 08:50:51;;;;;;;5.70;2.67;;;17.70;99.90;;;;;;5095766;29;20043;-72
2022/10/10 08:53:33;;;;;;;4.60;2.78;;;17.80;99.90;;;;;;5116941;28;20452;-72
2022/10/10 08:56:12;;;;;;;4.22;2.60;;;18.00;99.90;;;;;;5124585;28;20053;-71
2022/10/10 08:58:47;;;;;;;5.68;2.53;;;18.20;99.90;;;;;;5116110;29;20041;-72
2022/10/10 09:01:25;;;;;;;6.43;2.60;;;18.10;99.90;;;;;;5100390;28;20440;-72
2022/10/10 09:04:02;;;;;;;6.30;2.72;;;18.10;99.90;;;;;;5114998;28;20045;-72
2022/10/10 09:06:49;;;;;;;7.43;3.25;;;18.50;99.90;;;;;;5109125;28;20055;-73
2022/10/10 09:09:35;;;;;;;3.72;2.60;;;18.70;99.90;;;;;;5120777;29;20027;-72
2022/10/10 09:12:38;;;;;;;6.55;2.80;;;18.40;99.90;;;;;;5109036;29;20031;-72
2022/10/10 09:15:32;;;;;;;6.32;3.08;;;18.60;99.90;;;;;;5100749;29;20351;-73
2022/10/10 09:18:24;;;;;;;4.60;2.95;;;18.80;99.90;;;;;;5107712;29;20023;-73
2022/10/10 09:21:16;;;;;;;3.70;2.50;;;18.50;99.90;;;;;;5120757;28;20035;-72
2022/10/10 09:24:04;;;;;;;4.00;2.85;;;18.80;99.90;;;;;;5121213;28;20043;-72
2022/10/10 09:26:45;;;;;;;6.22;2.55;;;19.00;99.90;;;;;;5143618;28;20041;-73
2022/10/10 09:29:40;;;;;;;5.43;2.50;;;19.30;99.90;;;;;;5221061;28;20028;-73
2022/10/10 09:32:31;;;;;;;;;;;19.40;99.90;;;;;;5206378;28;20036;-73
2022/10/10 09:35:13;;;;;;;2.90;2.20;;;19.60;99.90;;;;;;5207064;28;20444;-73
2022/10/10 09:37:47;;;;;;;3.83;2.47;;;19.90;99.90;;;;;;5204883;28;20041;-71
2022/10/10 09:40:18;;;;;;;;;;;19.60;99.90;;;;;;5228805;28;20021;-72
2022/10/10 09:42:49;;;;;;;3.15;2.53;;;19.80;99.90;;;;;;5209578;28;19914;-72
2022/10/10 09:45:37;;;;;;;2.88;2.20;;;19.40;99.90;;;;;;5243995;28;20411;-71
2022/10/10 09:48:14;;;;;;;3.70;2.58;;;20.00;99.90;;;;;;5235390;28;20029;-73
2022/10/10 09:50:47;;;;;;;4.43;2.53;;;20.10;99.90;;;;;;5219392;28;20076;-72
2022/10/10 09:53:18;;;;;;;6.05;3.00;;;19.70;99.90;;;;;;5188018;28;20051;-73
2022/10/10 09:55:53;;;;;;;3.83;2.83;;;20.00;99.90;;;;;;5222517;28;20033;-73
2022/10/10 09:58:38;;;;;;;4.57;2.78;;;20.20;99.90;;;;;;5220639;28;20031;-72
2022/10/10 10:01:20;;;;;;;3.78;2.53;;;20.60;99.90;;;;;;5217156;28;20017;-72
2022/10/10 10:04:09;;;;;;;3.25;2.88;;;20.80;99.90;;;;;;5223994;28;20109;-73
2022/10/10 10:07:25;;;;;;;4.68;2.72;;;20.40;99.90;;;;;;5193603;28;20064;-73
2022/10/10 10:10:18;;;;;;;6.50;3.50;;;20.40;99.90;;;;;;5212897;28;20043;-72
2022/10/10 10:12:51;;;;;;;5.43;2.83;;;20.40;99.90;;;;;;5222254;28;20028;-72
2022/10/10 10:15:25;;;;;;;5.50;3.33;;;20.60;99.90;;;;;;5220995;28;20029;-72
2022/10/10 10:18:26;;;;;;;6.18;3.00;;;20.40;99.90;;;;;;5223167;28;20028;-72
2022/10/10 10:21:06;;;;;;;5.05;3.17;;;20.30;99.90;;;;;;5216588;28;20039;-72
2022/10/10 10:23:50;;;;;;;5.78;3.70;;;21.00;99.90;;;;;;5222520;28;20323;-72
2022/10/10 10:26:40;;;;;;;6.50;3.67;;;21.10;99.90;;;;;;5222271;28;20206;-72
2022/10/10 10:29:45;;;;;;;7.82;3.67;;;21.40;99.90;;;;;;5202777;28;20348;-72
2022/10/10 10:32:28;;;;;;;;;;;21.00;99.90;;;;;;5157963;28;20042;-72
2022/10/10 10:35:04;;;;;;;4.95;3.30;;;21.00;99.90;;;;;;5155561;28;20257;-71
2022/10/10 10:37:42;;;;;;;5.63;3.50;;;21.10;99.90;;;;;;5132544;28;20041;-72
2022/10/10 10:40:45;;;;;;;4.15;3.50;;;20.80;99.90;;;;;;5158807;28;20060;-72
2022/10/10 10:43:43;;;;;;;4.93;3.78;;;20.10;99.90;;;;;;5158599;28;20030;-72
2022/10/10 10:46:30;;;;;;;4.90;3.60;;;19.70;99.90;;;;;;5142094;28;20037;-72
2022/10/10 10:49:27;;;;;;;4.75;3.50;;;19.50;99.90;;;;;;5149472;28;20574;-72
2022/10/10 10:52:30;;;;;;;4.57;3.45;;;19.30;99.90;;;;;;5137975;28;20038;-71
2022/10/10 10:55:36;;;;;;;8.07;3.60;;;18.90;99.90;;;;;;5133285;28;20037;-72
2022/10/10 10:58:25;;;;;;;9.43;3.78;;;19.10;99.90;;;;;;5138315;28;20033;-72
2022/10/10 11:01:01;;;;;;;7.18;3.53;;;18.90;99.90;;;;;;5121576;28;20043;-72
2022/10/10 11:03:59;;;;;;;5.45;3.65;;;18.90;99.90;;;;;;5158116;28;20297;-72
2022/10/10 11:06:42;;;;;;;6.13;3.90;;;18.80;99.90;;;;;;5131185;28;20514;-72
2022/10/10 11:09:22;;;;;;;5.75;3.13;;;19.10;99.90;;;;;;5171649;28;20041;-72
2022/10/10 11:12:24;;;;;;;5.47;3.33;;;19.30;99.90;;;;;;5184939;28;20033;-72
2022/10/10 11:15:17;;;;;;;4.88;2.92;;;19.00;99.90;;;;;;5180961;28;20029;-72
2022/10/10 11:18:18;;;;;;;8.13;3.33;;;19.20;99.90;;;;;;5176867;28;20033;-72
2022/10/10 11:20:58;;;;;;;4.28;3.17;;;18.60;99.90;;;;;;5176085;28;20102;-72
2022/10/10 11:23:39;;;;;;;4.22;3.22;;;18.60;99.90;;;;;;5177255;28;20053;-72
2022/10/10 11:26:24;;;;;;;4.97;3.35;;;18.80;99.90;;;;;;5178536;28;20486;-71
2022/10/10 11:29:07;;;;;;;3.55;2.63;;;19.00;99.90;;;;;;5193483;28;20029;-71
2022/10/10 11:31:48;;;;;;;4.97;2.90;;;19.10;99.90;;;;;;5194589;28;20216;-71
2022/10/10 11:34:57;;;;;;;4.70;3.30;;;19.10;99.90;;;;;;5236138;28;20031;-71
2022/10/10 11:37:33;;;;;;;7.05;3.10;;;19.20;99.90;;;;;;5225008;28;20401;-72
2022/10/10 11:40:06;;;;;;;4.15;3.15;;;19.40;99.90;;;;;;5224384;28;20178;-72
2022/10/10 11:42:55;;;;;;;7.18;3.15;;;19.70;99.90;;;;;;5230394;28;20031;-71
2022/10/10 11:45:44;;;;;;;3.80;3.30;;;19.90;99.90;;;;;;5219517;28;20032;-73
2022/10/10 11:48:34;;;;;;;5.68;3.17;;;20.40;99.90;;;;;;5192167;28;20041;-71
2022/10/10 11:51:21;;;;;;;4.00;2.55;;;20.20;99.90;;;;;;5213900;28;20031;-73
2022/10/10 11:53:59;;;;;;;5.15;3.20;;;20.10;99.90;;;;;;5202353;28;20025;-72
2022/10/10 11:56:42;;;;;;;9.43;4.03;;;20.20;99.90;;;;;;5220050;28;20029;-72
2022/10/10 11:59:26;;;;;;;5.47;3.10;;;20.20;99.90;;;;;;5219528;28;20031;-72
2022/10/10 12:01:59;;;;;;;;;;;20.20;99.90;;;;;;5220296;28;20493;-72
2022/10/10 12:04:35;;;;;;;7.68;3.00;;;20.60;99.90;;;;;;5210299;28;19917;-72
2022/10/10 12:07:18;;;;;;;3.97;2.95;;;20.80;99.90;;;;;;5203434;28;20359;-72
2022/10/10 12:10:07;;;;;;;7.63;3.08;;;21.20;99.90;;;;;;5220821;28;20027;-73
2022/10/10 12:12:47;;;;;;;8.10;3.17;;;21.50;99.90;;;;;;5233049;28;20054;-72
2022/10/10 12:15:37;;;;;;;4.50;3.40;;;21.40;99.90;;;;;;5201435;28;20031;-72
2022/10/10 12:18:28;;;;;;;7.30;3.20;;;21.10;99.90;;;;;;5198022;28;20029;-71
2022/10/10 12:21:11;;;;;;;8.55;3.35;;;21.30;99.90;;;;;;5220517;28;20050;-72
2022/10/10 12:24:10;;;;;;;5.40;3.72;;;21.90;99.90;;;;;;5220866;28;20502;-72
2022/10/10 12:26:56;;;;;;;5.32;3.22;;;22.20;99.90;;;;;;5218069;28;20533;-72
2022/10/10 12:29:54;;;;;;;5.93;3.83;;;22.10;99.90;;;;;;5240582;28;20397;-72
2022/10/10 12:32:46;;;;;;;6.78;3.92;;;22.50;99.90;;;;;;5240083;28;20028;-73
2022/10/10 12:35:39;;;;;;;5.57;3.83;;;22.30;99.90;;;;;;5183886;28;20028;-72
2022/10/10 12:38:14;;;;;;;4.88;3.55;;;22.00;99.90;;;;;;5214929;28;20048;-71
2022/10/10 12:41:10;;;;;;;7.65;4.45;;;21.90;99.90;;;;;;5223393;28;20024;-71
2022/10/10 12:43:48;;;;;;;6.43;3.92;;;21.50;99.90;;;;;;5221655;28;20031;-72
2022/10/10 12:46:22;;;;;;;6.57;4.80;;;21.60;99.90;;;;;;5214346;28;20028;-73
2022/10/10 12:49:19;;;;;;;6.97;4.25;;;21.40;99.90;;;;;;5213872;28;20033;-71
2022/10/10 12:52:02;;;;;;;9.13;4.45;;;21.40;99.90;;;;;;5204651;28;20536;-73
2022/10/10 12:54:39;;;;;;;11.82;4.40;;;20.90;99.90;;;;;;5204649;28;20032;-72
2022/10/10 12:57:13;;;;;;;7.68;4.20;;;21.20;99.90;;;;;;5205913;28;20037;-72
2022/10/10 12:59:47;;;;;;;7.63;3.95;;;21.20;99.90;;;;;;5224147;28;20025;-73
2022/10/10 13:02:24;;;;;;;7.07;4.00;;;20.50;99.90;;;;;;5214715;28;20021;-72
2022/10/10 13:04:59;;;;;;;9.65;4.18;;;20.90;99.90;;;;;;5198786;28;20480;-73
2022/10/10 13:07:30;;;;;;;7.90;4.25;;;21.20;99.90;;;;;;5201343;28;20033;-72
2022/10/10 13:10:17;;;;;;;7.57;3.92;;;20.70;99.90;;;;;;5205198;28;20033;-73
2022/10/10 13:13:19;;;;;;;10.95;5.13;;;20.30;99.90;;;;;;5218516;28;20009;-72
2022/10/10 13:15:56;;;;;;;9.15;4.72;;;20.50;99.90;;;;;;5195221;28;20052;-72
2022/10/10 13:18:37;;;;;;;7.15;4.30;;;20.30;99.90;;;;;;5201260;28;20022;-72
2022/10/10 13:21:11;;;;;;;6.18;3.88;;;20.40;99.90;;;;;;5199815;28;20527;-72
2022/10/10 13:23:44;;;;;;;;;;;20.60;99.90;;;;;;5200183;28;20041;-72
2022/10/10 13:26:36;;;;;;;7.00;4.32;;;20.80;99.90;;;;;;5183825;28;19909;-72
2022/10/10 13:29:16;;;;;;;8.70;4.47;;;21.10;99.90;;;;;;5202128;28;20029;-72
2022/10/10 13:31:48;;;;;;;6.97;3.85;;;21.40;99.90;;;;;;5221372;28;20035;-73
2022/10/10 13:34:30;;;;;;;5.93;4.18;;;20.40;99.90;;;;;;5206689;28;20039;-72
2022/10/10 13:37:04;;;;;;;5.60;4.32;;;20.80;99.90;;;;;;5184583;28;20372;-72
2022/10/10 13:39:37;;;;;;;7.47;4.30;;;20.80;99.90;;;;;;5196589;28;20049;-72
2022/10/10 13:42:38;;;;;;;4.82;4.10;;;21.20;99.90;;;;;;5195163;28;20087;-72
2022/10/10 13:45:22;;;;;;;7.68;4.22;;;21.10;99.90;;;;;;5182141;28;20052;-72
2022/10/10 13:47:59;;;;;;;5.88;4.35;;;21.10;99.90;;;;;;5184936;28;20034;-72
2022/10/10 13:50:48;;;;;;;6.63;4.38;;;21.00;99.90;;;;;;5199589;28;20040;-72